Bucks Bridge, New York
Current Conditions -  °F | °C
As of 10:53 PM on Thursday 27 Nov 2014 (Local Time) from KMSS Reporting Station
Light Snow Light Snow  
Wind Chill: -7°   Ceiling: 4800
Heat Index: -3°   Visibility: 9mi
Dew Point: -9°   Wind: 7mph
Humidity: 63%   Direction: 280°W
Pressure: 30.08"   Gusts: NA
Location:  44.5792°N, 75.1592°W
Report Text: KMSS 280353Z AUTO 28006KT 9SM -SN BKN048 OVC070 M03/M09 A3008 RMK AO2 SNB53 SLP191 P0000 T10281089
Loading
Personal Weather Stations






























Interactive Weather Map New forecast layout! Learn more

10-Day Weather Forecast

Advertisements
Track Severe Weather on mobile